sensor_id;sensor_type;location;lat;lon;timestamp;P1;P2;P0
57289;PMS5003;43523;53.022;-1.178;2023-04-15T00:00:19;29;26;
57289;PMS5003;43523;53.022;-1.178;2023-04-15T00:01:21;29;23;
57289;PMS5003;43523;53.022;-1.178;2023-04-15T00:02:23;30;29;
57289;PMS5003;43523;53.022;-1.178;2023-04-15T00:03:26;28;25;
57289;PMS5003;43523;53.022;-1.178;2023-04-15T00:04:27;25;21;
57289;PMS5003;43523;53.022;-1.178;2023-04-15T00:05:30;29;29;
57289;PMS5003;43523;53.022;-1.178;2023-04-15T00:06:33;24;21;
57289;PMS5003;43523;53.022;-1.178;2023-04-15T00:07:35;33;30;
57289;PMS5003;43523;53.022;-1.178;2023-04-15T00:08:37;37;29;
57289;PMS5003;43523;53.022;-1.178;2023-04-15T00:09:40;31;28;
57289;PMS5003;43523;53.022;-1.178;2023-04-15T00:10:43;31;28;
57289;PMS5003;43523;53.022;-1.178;2023-04-15T00:11:45;38;32;
57289;PMS5003;43523;53.022;-1.178;2023-04-15T00:12:53;29;27;
57289;PMS5003;43523;53.022;-1.178;2023-04-15T00:13:55;31;28;
57289;PMS5003;43523;53.022;-1.178;2023-04-15T00:14:56;30;27;
57289;PMS5003;43523;53.022;-1.178;2023-04-15T00:15:59;36;29;
57289;PMS5003;43523;53.022;-1.178;2023-04-15T00:17:01;33;30;
57289;PMS5003;43523;53.022;-1.178;2023-04-15T00:18:04;33;25;
57289;PMS5003;43523;53.022;-1.178;2023-04-15T00:19:06;29;24;
57289;PMS5003;43523;53.022;-1.178;2023-04-15T00:20:08;24;22;
57289;PMS5003;43523;53.022;-1.178;2023-04-15T00:21:11;32;27;
57289;PMS5003;43523;53.022;-1.178;2023-04-15T00:22:13;29;26;
57289;PMS5003;43523;53.022;-1.178;2023-04-15T00:23:16;31;30;
57289;PMS5003;43523;53.022;-1.178;2023-04-15T00:24:18;33;28;
57289;PMS5003;43523;53.022;-1.178;2023-04-15T00:25:21;31;29;
57289;PMS5003;43523;53.022;-1.178;2023-04-15T00:26:24;38;31;
57289;PMS5003;43523;53.022;-1.178;2023-04-15T00:27:26;26;23;
57289;PMS5003;43523;53.022;-1.178;2023-04-15T00:28:28;29;27;
57289;PMS5003;43523;53.022;-1.178;2023-04-15T00:29:30;31;26;
57289;PMS5003;43523;53.022;-1.178;2023-04-15T00:30:33;27;24;
57289;PMS5003;43523;53.022;-1.178;2023-04-15T00:31:35;31;25;
57289;PMS5003;43523;53.022;-1.178;2023-04-15T00:32:37;25;24;
57289;PMS5003;43523;53.022;-1.178;2023-04-15T00:33:39;28;25;
57289;PMS5003;43523;53.022;-1.178;2023-04-15T00:34:41;35;29;
57289;PMS5003;43523;53.022;-1.178;2023-04-15T00:35:45;27;23;
57289;PMS5003;43523;53.022;-1.178;2023-04-15T00:36:47;33;24;
57289;PMS5003;43523;53.022;-1.178;2023-04-15T00:37:50;35;29;
57289;PMS5003;43523;53.022;-1.178;2023-04-15T00:38:52;28;24;
57289;PMS5003;43523;53.022;-1.178;2023-04-15T00:39:54;29;25;
57289;PMS5003;43523;53.022;-1.178;2023-04-15T00:40:56;29;26;
57289;PMS5003;43523;53.022;-1.178;2023-04-15T00:41:59;36;26;
57289;PMS5003;43523;53.022;-1.178;2023-04-15T00:43:02;32;30;
57289;PMS5003;43523;53.022;-1.178;2023-04-15T00:44:05;26;24;
57289;PMS5003;43523;53.022;-1.178;2023-04-15T00:45:07;27;23;
57289;PMS5003;43523;53.022;-1.178;2023-04-15T00:46:12;27;24;
57289;PMS5003;43523;53.022;-1.178;2023-04-15T00:47:17;31;27;
57289;PMS5003;43523;53.022;-1.178;2023-04-15T00:48:21;35;31;
57289;PMS5003;43523;53.022;-1.178;2023-04-15T00:49:23;25;23;
57289;PMS5003;43523;53.022;-1.178;2023-04-15T00:50:25;24;22;
57289;PMS5003;43523;53.022;-1.178;2023-04-15T00:51:28;28;19;
57289;PMS5003;43523;53.022;-1.178;2023-04-15T00:52:30;32;25;
57289;PMS5003;43523;53.022;-1.178;2023-04-15T00:53:32;33;28;
57289;PMS5003;43523;53.022;-1.178;2023-04-15T00:54:34;28;26;
57289;PMS5003;43523;53.022;-1.178;2023-04-15T00:55:37;31;27;
57289;PMS5003;43523;53.022;-1.178;2023-04-15T00:56:39;28;25;
57289;PMS5003;43523;53.022;-1.178;2023-04-15T00:57:43;27;25;
57289;PMS5003;43523;53.022;-1.178;2023-04-15T00:58:45;26;25;
57289;PMS5003;43523;53.022;-1.178;2023-04-15T00:59:47;27;24;
57289;PMS5003;43523;53.022;-1.178;2023-04-15T01:00:49;26;23;
57289;PMS5003;43523;53.022;-1.178;2023-04-15T01:01:52;24;24;
57289;PMS5003;43523;53.022;-1.178;2023-04-15T01:02:54;24;21;
57289;PMS5003;43523;53.022;-1.178;2023-04-15T01:03:56;25;21;
57289;PMS5003;43523;53.022;-1.178;2023-04-15T01:04:59;26;23;
57289;PMS5003;43523;53.022;-1.178;2023-04-15T01:06:01;21;21;
57289;PMS5003;43523;53.022;-1.178;2023-04-15T01:07:03;17;16;
57289;PMS5003;43523;53.022;-1.178;2023-04-15T01:08:06;26;18;
57289;PMS5003;43523;53.022;-1.178;2023-04-15T01:09:08;24;21;
57289;PMS5003;43523;53.022;-1.178;2023-04-15T01:10:10;19;17;
57289;PMS5003;43523;53.022;-1.178;2023-04-15T01:11:13;17;16;
57289;PMS5003;43523;53.022;-1.178;2023-04-15T01:12:16;18;18;
57289;PMS5003;43523;53.022;-1.178;2023-04-15T01:13:21;17;17;
57289;PMS5003;43523;53.022;-1.178;2023-04-15T01:14:25;20;17;
57289;PMS5003;43523;53.022;-1.178;2023-04-15T01:15:27;14;13;
57289;PMS5003;43523;53.022;-1.178;2023-04-15T01:16:30;19;16;
57289;PMS5003;43523;53.022;-1.178;2023-04-15T01:17:37;21;18;
57289;PMS5003;43523;53.022;-1.178;2023-04-15T01:18:40;22;19;
57289;PMS5003;43523;53.022;-1.178;2023-04-15T01:19:43;27;21;
57289;PMS5003;43523;53.022;-1.178;2023-04-15T01:20:46;15;12;
57289;PMS5003;43523;53.022;-1.178;2023-04-15T01:21:48;21;21;
57289;PMS5003;43523;53.022;-1.178;2023-04-15T01:22:50;21;20;
57289;PMS5003;43523;53.022;-1.178;2023-04-15T01:23:52;20;19;
57289;PMS5003;43523;53.022;-1.178;2023-04-15T01:24:57;18;16;
57289;PMS5003;43523;53.022;-1.178;2023-04-15T01:26:06;17;15;
57289;PMS5003;43523;53.022;-1.178;2023-04-15T01:27:08;24;22;
57289;PMS5003;43523;53.022;-1.178;2023-04-15T01:28:11;14;14;
57289;PMS5003;43523;53.022;-1.178;2023-04-15T01:29:13;25;17;
57289;PMS5003;43523;53.022;-1.178;2023-04-15T01:30:16;19;17;
57289;PMS5003;43523;53.022;-1.178;2023-04-15T01:31:18;19;16;
57289;PMS5003;43523;53.022;-1.178;2023-04-15T01:32:21;16;14;
57289;PMS5003;43523;53.022;-1.178;2023-04-15T01:33:24;13;13;
57289;PMS5003;43523;53.022;-1.178;2023-04-15T01:34:26;11;11;
57289;PMS5003;43523;53.022;-1.178;2023-04-15T01:35:29;17;14;
57289;PMS5003;43523;53.022;-1.178;2023-04-15T01:36:30;17;16;
57289;PMS5003;43523;53.022;-1.178;2023-04-15T01:37:32;18;14;
57289;PMS5003;43523;53.022;-1.178;2023-04-15T01:38:35;18;18;
57289;PMS5003;43523;53.022;-1.178;2023-04-15T01:39:38;13;12;
57289;PMS5003;43523;53.022;-1.178;2023-04-15T01:40:40;22;16;
57289;PMS5003;43523;53.022;-1.178;2023-04-15T01:41:43;20;20;
57289;PMS5003;43523;53.022;-1.178;2023-04-15T01:42:46;17;14;
57289;PMS5003;43523;53.022;-1.178;2023-04-15T01:43:48;16;15;
57289;PMS5003;43523;53.022;-1.178;2023-04-15T01:44:50;19;15;
57289;PMS5003;43523;53.022;-1.178;2023-04-15T01:45:52;18;15;
57289;PMS5003;43523;53.022;-1.178;2023-04-15T01:46:55;15;15;
57289;PMS5003;43523;53.022;-1.178;2023-04-15T01:47:57;16;14;
57289;PMS5003;43523;53.022;-1.178;2023-04-15T01:49:00;15;14;
57289;PMS5003;43523;53.022;-1.178;2023-04-15T01:50:03;14;14;
57289;PMS5003;43523;53.022;-1.178;2023-04-15T01:51:05;15;13;
57289;PMS5003;43523;53.022;-1.178;2023-04-15T01:52:08;16;13;
57289;PMS5003;43523;53.022;-1.178;2023-04-15T01:53:10;17;15;
57289;PMS5003;43523;53.022;-1.178;2023-04-15T01:54:12;16;15;
57289;PMS5003;43523;53.022;-1.178;2023-04-15T01:55:15;14;11;
57289;PMS5003;43523;53.022;-1.178;2023-04-15T01:56:17;14;14;
57289;PMS5003;43523;53.022;-1.178;2023-04-15T01:57:19;15;12;
57289;PMS5003;43523;53.022;-1.178;2023-04-15T01:58:22;11;11;
57289;PMS5003;43523;53.022;-1.178;2023-04-15T01:59:24;18;12;
57289;PMS5003;43523;53.022;-1.178;2023-04-15T02:00:26;12;12;
57289;PMS5003;43523;53.022;-1.178;2023-04-15T02:01:29;12;11;
57289;PMS5003;43523;53.022;-1.178;2023-04-15T02:02:31;12;12;
57289;PMS5003;43523;53.022;-1.178;2023-04-15T02:03:34;17;16;
57289;PMS5003;43523;53.022;-1.178;2023-04-15T02:04:37;16;14;
57289;PMS5003;43523;53.022;-1.178;2023-04-15T02:05:39;14;12;
57289;PMS5003;43523;53.022;-1.178;2023-04-15T02:06:42;14;13;
57289;PMS5003;43523;53.022;-1.178;2023-04-15T02:07:45;13;12;
57289;PMS5003;43523;53.022;-1.178;2023-04-15T02:08:48;14;11;
57289;PMS5003;43523;53.022;-1.178;2023-04-15T02:09:51;12;9;
57289;PMS5003;43523;53.022;-1.178;2023-04-15T02:10:53;13;13;
57289;PMS5003;43523;53.022;-1.178;2023-04-15T02:11:56;10;10;
57289;PMS5003;43523;53.022;-1.178;2023-04-15T02:12:58;12;10;
57289;PMS5003;43523;53.022;-1.178;2023-04-15T02:14:01;16;14;
57289;PMS5003;43523;53.022;-1.178;2023-04-15T02:15:03;16;11;
57289;PMS5003;43523;53.022;-1.178;2023-04-15T02:16:14;12;12;
57289;PMS5003;43523;53.022;-1.178;2023-04-15T02:17:16;15;12;
57289;PMS5003;43523;53.022;-1.178;2023-04-15T02:18:19;10;10;
57289;PMS5003;43523;53.022;-1.178;2023-04-15T02:19:21;10;10;
57289;PMS5003;43523;53.022;-1.178;2023-04-15T02:20:24;12;11;
57289;PMS5003;43523;53.022;-1.178;2023-04-15T02:21:27;10;10;
57289;PMS5003;43523;53.022;-1.178;2023-04-15T02:22:29;14;11;
57289;PMS5003;43523;53.022;-1.178;2023-04-15T02:23:31;9;9;
57289;PMS5003;43523;53.022;-1.178;2023-04-15T02:24:34;13;13;
57289;PMS5003;43523;53.022;-1.178;2023-04-15T02:25:36;16;15;
57289;PMS5003;43523;53.022;-1.178;2023-04-15T02:26:39;15;13;
57289;PMS5003;43523;53.022;-1.178;2023-04-15T02:27:41;12;12;
57289;PMS5003;43523;53.022;-1.178;2023-04-15T02:28:43;11;10;
57289;PMS5003;43523;53.022;-1.178;2023-04-15T02:29:47;10;8;
57289;PMS5003;43523;53.022;-1.178;2023-04-15T02:30:49;11;11;
57289;PMS5003;43523;53.022;-1.178;2023-04-15T02:31:51;13;11;
57289;PMS5003;43523;53.022;-1.178;2023-04-15T02:32:54;9;9;
57289;PMS5003;43523;53.022;-1.178;2023-04-15T02:33:56;13;13;
57289;PMS5003;43523;53.022;-1.178;2023-04-15T02:35:01;14;12;
57289;PMS5003;43523;53.022;-1.178;2023-04-15T02:36:04;13;11;
57289;PMS5003;43523;53.022;-1.178;2023-04-15T02:37:07;12;12;
57289;PMS5003;43523;53.022;-1.178;2023-04-15T02:38:09;11;11;
57289;PMS5003;43523;53.022;-1.178;2023-04-15T02:39:11;11;10;
57289;PMS5003;43523;53.022;-1.178;2023-04-15T02:40:14;18;16;
57289;PMS5003;43523;53.022;-1.178;2023-04-15T02:41:16;16;14;
57289;PMS5003;43523;53.022;-1.178;2023-04-15T02:42:19;9;9;
57289;PMS5003;43523;53.022;-1.178;2023-04-15T02:43:21;13;12;
57289;PMS5003;43523;53.022;-1.178;2023-04-15T02:44:23;13;13;
57289;PMS5003;43523;53.022;-1.178;2023-04-15T02:45:26;20;13;
57289;PMS5003;43523;53.022;-1.178;2023-04-15T02:46:28;18;16;
57289;PMS5003;43523;53.022;-1.178;2023-04-15T02:47:31;16;15;
57289;PMS5003;43523;53.022;-1.178;2023-04-15T02:48:33;19;17;
57289;PMS5003;43523;53.022;-1.178;2023-04-15T02:49:37;14;12;
57289;PMS5003;43523;53.022;-1.178;2023-04-15T02:50:39;9;9;
57289;PMS5003;43523;53.022;-1.178;2023-04-15T02:51:42;18;13;
57289;PMS5003;43523;53.022;-1.178;2023-04-15T02:52:45;12;11;
57289;PMS5003;43523;53.022;-1.178;2023-04-15T02:53:48;16;14;
57289;PMS5003;43523;53.022;-1.178;2023-04-15T02:54:50;15;12;
57289;PMS5003;43523;53.022;-1.178;2023-04-15T02:55:52;11;9;
57289;PMS5003;43523;53.022;-1.178;2023-04-15T02:56:55;14;14;
57289;PMS5003;43523;53.022;-1.178;2023-04-15T02:57:58;14;13;
57289;PMS5003;43523;53.022;-1.178;2023-04-15T02:59:00;18;16;
57289;PMS5003;43523;53.022;-1.178;2023-04-15T03:00:03;16;15;
57289;PMS5003;43523;53.022;-1.178;2023-04-15T03:01:06;15;13;
57289;PMS5003;43523;53.022;-1.178;2023-04-15T03:02:09;16;16;
57289;PMS5003;43523;53.022;-1.178;2023-04-15T03:03:11;16;16;
57289;PMS5003;43523;53.022;-1.178;2023-04-15T03:04:13;13;13;
57289;PMS5003;43523;53.022;-1.178;2023-04-15T03:05:16;20;15;
57289;PMS5003;43523;53.022;-1.178;2023-04-15T03:06:19;13;13;
57289;PMS5003;43523;53.022;-1.178;2023-04-15T03:07:21;16;14;
57289;PMS5003;43523;53.022;-1.178;2023-04-15T03:08:24;21;16;
57289;PMS5003;43523;53.022;-1.178;2023-04-15T03:09:26;14;13;
57289;PMS5003;43523;53.022;-1.178;2023-04-15T03:10:28;17;14;
57289;PMS5003;43523;53.022;-1.178;2023-04-15T03:11:31;18;16;
57289;PMS5003;43523;53.022;-1.178;2023-04-15T03:12:33;21;17;
57289;PMS5003;43523;53.022;-1.178;2023-04-15T03:13:36;15;14;
57289;PMS5003;43523;53.022;-1.178;2023-04-15T03:14:38;16;16;
57289;PMS5003;43523;53.022;-1.178;2023-04-15T03:15:41;18;16;
57289;PMS5003;43523;53.022;-1.178;2023-04-15T03:16:43;22;20;
57289;PMS5003;43523;53.022;-1.178;2023-04-15T03:17:45;18;15;
57289;PMS5003;43523;53.022;-1.178;2023-04-15T03:18:47;21;18;
57289;PMS5003;43523;53.022;-1.178;2023-04-15T03:19:49;15;14;
57289;PMS5003;43523;53.022;-1.178;2023-04-15T03:20:52;24;19;
57289;PMS5003;43523;53.022;-1.178;2023-04-15T03:21:54;24;23;
57289;PMS5003;43523;53.022;-1.178;2023-04-15T03:22:57;20;18;
57289;PMS5003;43523;53.022;-1.178;2023-04-15T03:23:59;27;18;
57289;PMS5003;43523;53.022;-1.178;2023-04-15T03:25:02;19;19;
57289;PMS5003;43523;53.022;-1.178;2023-04-15T03:26:06;20;20;
57289;PMS5003;43523;53.022;-1.178;2023-04-15T03:27:09;24;20;
57289;PMS5003;43523;53.022;-1.178;2023-04-15T03:28:12;25;21;
57289;PMS5003;43523;53.022;-1.178;2023-04-15T03:29:14;18;16;
57289;PMS5003;43523;53.022;-1.178;2023-04-15T03:30:16;22;18;
57289;PMS5003;43523;53.022;-1.178;2023-04-15T03:31:19;19;16;
57289;PMS5003;43523;53.022;-1.178;2023-04-15T03:32:22;21;19;
57289;PMS5003;43523;53.022;-1.178;2023-04-15T03:33:24;18;18;
57289;PMS5003;43523;53.022;-1.178;2023-04-15T03:34:26;24;20;
57289;PMS5003;43523;53.022;-1.178;2023-04-15T03:35:28;19;18;
57289;PMS5003;43523;53.022;-1.178;2023-04-15T03:36:31;21;19;
57289;PMS5003;43523;53.022;-1.178;2023-04-15T03:37:33;29;19;
57289;PMS5003;43523;53.022;-1.178;2023-04-15T03:38:36;17;17;
57289;PMS5003;43523;53.022;-1.178;2023-04-15T03:39:38;22;19;
57289;PMS5003;43523;53.022;-1.178;2023-04-15T03:40:40;21;20;
57289;PMS5003;43523;53.022;-1.178;2023-04-15T03:41:43;19;19;
57289;PMS5003;43523;53.022;-1.178;2023-04-15T03:42:46;20;18;
57289;PMS5003;43523;53.022;-1.178;2023-04-15T03:43:48;18;18;
57289;PMS5003;43523;53.022;-1.178;2023-04-15T03:44:50;22;21;
57289;PMS5003;43523;53.022;-1.178;2023-04-15T03:45:52;20;17;
57289;PMS5003;43523;53.022;-1.178;2023-04-15T03:46:55;19;19;
57289;PMS5003;43523;53.022;-1.178;2023-04-15T03:47:57;29;23;
57289;PMS5003;43523;53.022;-1.178;2023-04-15T03:48:59;24;20;
57289;PMS5003;43523;53.022;-1.178;2023-04-15T03:50:02;23;21;
57289;PMS5003;43523;53.022;-1.178;2023-04-15T03:51:04;21;17;
57289;PMS5003;43523;53.022;-1.178;2023-04-15T03:52:07;20;18;
57289;PMS5003;43523;53.022;-1.178;2023-04-15T03:53:09;22;22;
57289;PMS5003;43523;53.022;-1.178;2023-04-15T03:54:12;17;16;
57289;PMS5003;43523;53.022;-1.178;2023-04-15T03:55:15;21;19;
57289;PMS5003;43523;53.022;-1.178;2023-04-15T03:56:18;25;23;
57289;PMS5003;43523;53.022;-1.178;2023-04-15T03:57:20;20;20;
57289;PMS5003;43523;53.022;-1.178;2023-04-15T03:58:23;20;19;
57289;PMS5003;43523;53.022;-1.178;2023-04-15T03:59:25;21;18;
57289;PMS5003;43523;53.022;-1.178;2023-04-15T04:00:28;19;18;
57289;PMS5003;43523;53.022;-1.178;2023-04-15T04:01:31;23;18;
57289;PMS5003;43523;53.022;-1.178;2023-04-15T04:02:33;25;21;
57289;PMS5003;43523;53.022;-1.178;2023-04-15T04:03:35;25;23;
57289;PMS5003;43523;53.022;-1.178;2023-04-15T04:04:37;22;20;
57289;PMS5003;43523;53.022;-1.178;2023-04-15T04:05:39;22;20;
57289;PMS5003;43523;53.022;-1.178;2023-04-15T04:06:43;27;21;
57289;PMS5003;43523;53.022;-1.178;2023-04-15T04:07:45;20;19;
57289;PMS5003;43523;53.022;-1.178;2023-04-15T04:08:47;29;24;
57289;PMS5003;43523;53.022;-1.178;2023-04-15T04:09:50;18;17;
57289;PMS5003;43523;53.022;-1.178;2023-04-15T04:10:52;23;22;
57289;PMS5003;43523;53.022;-1.178;2023-04-15T04:11:54;20;18;
57289;PMS5003;43523;53.022;-1.178;2023-04-15T04:12:56;21;17;
57289;PMS5003;43523;53.022;-1.178;2023-04-15T04:14:00;22;18;
57289;PMS5003;43523;53.022;-1.178;2023-04-15T04:15:02;24;19;
57289;PMS5003;43523;53.022;-1.178;2023-04-15T04:16:05;23;17;
57289;PMS5003;43523;53.022;-1.178;2023-04-15T04:17:07;27;21;
57289;PMS5003;43523;53.022;-1.178;2023-04-15T04:18:10;21;18;
57289;PMS5003;43523;53.022;-1.178;2023-04-15T04:19:12;26;23;
57289;PMS5003;43523;53.022;-1.178;2023-04-15T04:20:14;18;17;
57289;PMS5003;43523;53.022;-1.178;2023-04-15T04:21:16;19;19;
57289;PMS5003;43523;53.022;-1.178;2023-04-15T04:22:21;25;20;
57289;PMS5003;43523;53.022;-1.178;2023-04-15T04:23:25;24;21;
57289;PMS5003;43523;53.022;-1.178;2023-04-15T04:24:27;23;21;
57289;PMS5003;43523;53.022;-1.178;2023-04-15T04:25:29;20;16;
57289;PMS5003;43523;53.022;-1.178;2023-04-15T04:26:32;16;14;
57289;PMS5003;43523;53.022;-1.178;2023-04-15T04:27:34;29;22;
57289;PMS5003;43523;53.022;-1.178;2023-04-15T04:28:37;22;21;
57289;PMS5003;43523;53.022;-1.178;2023-04-15T04:29:39;22;21;
57289;PMS5003;43523;53.022;-1.178;2023-04-15T04:30:41;18;18;
57289;PMS5003;43523;53.022;-1.178;2023-04-15T04:31:45;21;19;
57289;PMS5003;43523;53.022;-1.178;2023-04-15T04:32:48;28;23;
57289;PMS5003;43523;53.022;-1.178;2023-04-15T04:33:51;26;23;
57289;PMS5003;43523;53.022;-1.178;2023-04-15T04:34:53;36;25;
57289;PMS5003;43523;53.022;-1.178;2023-04-15T04:35:55;23;21;
57289;PMS5003;43523;53.022;-1.178;2023-04-15T04:36:57;22;22;
57289;PMS5003;43523;53.022;-1.178;2023-04-15T04:38:00;24;20;
57289;PMS5003;43523;53.022;-1.178;2023-04-15T04:39:03;23;22;
57289;PMS5003;43523;53.022;-1.178;2023-04-15T04:40:06;24;20;
57289;PMS5003;43523;53.022;-1.178;2023-04-15T04:41:09;24;17;
57289;PMS5003;43523;53.022;-1.178;2023-04-15T04:42:11;27;26;
57289;PMS5003;43523;53.022;-1.178;2023-04-15T04:43:13;26;22;
57289;PMS5003;43523;53.022;-1.178;2023-04-15T04:44:16;19;16;
57289;PMS5003;43523;53.022;-1.178;2023-04-15T04:45:18;30;24;
57289;PMS5003;43523;53.022;-1.178;2023-04-15T04:46:22;29;27;
57289;PMS5003;43523;53.022;-1.178;2023-04-15T04:47:24;31;27;
57289;PMS5003;43523;53.022;-1.178;2023-04-15T04:48:27;27;25;
57289;PMS5003;43523;53.022;-1.178;2023-04-15T04:49:30;31;29;
57289;PMS5003;43523;53.022;-1.178;2023-04-15T04:50:32;22;21;
57289;PMS5003;43523;53.022;-1.178;2023-04-15T04:51:34;25;20;
57289;PMS5003;43523;53.022;-1.178;2023-04-15T04:52:36;29;26;
57289;PMS5003;43523;53.022;-1.178;2023-04-15T04:53:39;40;30;
57289;PMS5003;43523;53.022;-1.178;2023-04-15T04:54:44;22;22;
57289;PMS5003;43523;53.022;-1.178;2023-04-15T04:55:46;20;20;
57289;PMS5003;43523;53.022;-1.178;2023-04-15T04:56:48;24;18;
57289;PMS5003;43523;53.022;-1.178;2023-04-15T04:57:50;35;26;
57289;PMS5003;43523;53.022;-1.178;2023-04-15T04:58:53;20;18;
57289;PMS5003;43523;53.022;-1.178;2023-04-15T04:59:55;20;19;
57289;PMS5003;43523;53.022;-1.178;2023-04-15T05:00:57;29;24;
57289;PMS5003;43523;53.022;-1.178;2023-04-15T05:02:00;24;20;
57289;PMS5003;43523;53.022;-1.178;2023-04-15T05:03:02;27;22;
57289;PMS5003;43523;53.022;-1.178;2023-04-15T05:04:04;17;15;
57289;PMS5003;43523;53.022;-1.178;2023-04-15T05:05:07;21;18;
57289;PMS5003;43523;53.022;-1.178;2023-04-15T05:06:10;27;21;
57289;PMS5003;43523;53.022;-1.178;2023-04-15T05:07:12;19;17;
57289;PMS5003;43523;53.022;-1.178;2023-04-15T05:08:15;18;17;
57289;PMS5003;43523;53.022;-1.178;2023-04-15T05:09:17;17;17;
57289;PMS5003;43523;53.022;-1.178;2023-04-15T05:10:19;24;23;
57289;PMS5003;43523;53.022;-1.178;2023-04-15T05:11:23;22;17;
57289;PMS5003;43523;53.022;-1.178;2023-04-15T05:12:26;26;22;
57289;PMS5003;43523;53.022;-1.178;2023-04-15T05:13:28;25;21;
57289;PMS5003;43523;53.022;-1.178;2023-04-15T05:14:31;22;19;
57289;PMS5003;43523;53.022;-1.178;2023-04-15T05:15:33;19;19;
57289;PMS5003;43523;53.022;-1.178;2023-04-15T05:16:35;25;22;
57289;PMS5003;43523;53.022;-1.178;2023-04-15T05:17:38;29;26;
57289;PMS5003;43523;53.022;-1.178;2023-04-15T05:18:39;23;21;
57289;PMS5003;43523;53.022;-1.178;2023-04-15T05:19:42;32;27;
57289;PMS5003;43523;53.022;-1.178;2023-04-15T05:20:46;25;23;
57289;PMS5003;43523;53.022;-1.178;2023-04-15T05:21:48;28;25;
57289;PMS5003;43523;53.022;-1.178;2023-04-15T05:22:50;24;20;
57289;PMS5003;43523;53.022;-1.178;2023-04-15T05:23:53;24;20;
57289;PMS5003;43523;53.022;-1.178;2023-04-15T05:24:55;34;27;
57289;PMS5003;43523;53.022;-1.178;2023-04-15T05:25:57;25;21;
57289;PMS5003;43523;53.022;-1.178;2023-04-15T05:26:59;20;20;
57289;PMS5003;43523;53.022;-1.178;2023-04-15T05:28:02;32;27;
57289;PMS5003;43523;53.022;-1.178;2023-04-15T05:29:04;31;24;
57289;PMS5003;43523;53.022;-1.178;2023-04-15T05:30:07;23;20;
57289;PMS5003;43523;53.022;-1.178;2023-04-15T05:31:09;26;23;
57289;PMS5003;43523;53.022;-1.178;2023-04-15T05:32:12;21;19;
57289;PMS5003;43523;53.022;-1.178;2023-04-15T05:33:15;25;23;
57289;PMS5003;43523;53.022;-1.178;2023-04-15T05:34:18;21;20;
57289;PMS5003;43523;53.022;-1.178;2023-04-15T05:35:20;23;21;
57289;PMS5003;43523;53.022;-1.178;2023-04-15T05:36:23;26;19;
57289;PMS5003;43523;53.022;-1.178;2023-04-15T05:37:25;23;19;
57289;PMS5003;43523;53.022;-1.178;2023-04-15T05:38:28;26;23;
57289;PMS5003;43523;53.022;-1.178;2023-04-15T05:39:30;23;19;
57289;PMS5003;43523;53.022;-1.178;2023-04-15T05:40:32;26;22;
57289;PMS5003;43523;53.022;-1.178;2023-04-15T05:41:34;22;20;
57289;PMS5003;43523;53.022;-1.178;2023-04-15T05:42:37;26;21;
57289;PMS5003;43523;53.022;-1.178;2023-04-15T05:43:39;22;20;
57289;PMS5003;43523;53.022;-1.178;2023-04-15T05:44:41;21;18;
57289;PMS5003;43523;53.022;-1.178;2023-04-15T05:45:45;21;20;
57289;PMS5003;43523;53.022;-1.178;2023-04-15T05:46:48;23;21;
57289;PMS5003;43523;53.022;-1.178;2023-04-15T05:47:50;24;21;
57289;PMS5003;43523;53.022;-1.178;2023-04-15T05:48:52;24;18;
57289;PMS5003;43523;53.022;-1.178;2023-04-15T05:49:54;27;23;
57289;PMS5003;43523;53.022;-1.178;2023-04-15T05:50:57;22;18;
57289;PMS5003;43523;53.022;-1.178;2023-04-15T05:51:59;19;18;
57289;PMS5003;43523;53.022;-1.178;2023-04-15T05:53:01;24;22;
57289;PMS5003;43523;53.022;-1.178;2023-04-15T05:54:03;22;20;
57289;PMS5003;43523;53.022;-1.178;2023-04-15T05:55:06;22;19;
57289;PMS5003;43523;53.022;-1.178;2023-04-15T05:56:08;22;19;
57289;PMS5003;43523;53.022;-1.178;2023-04-15T05:57:10;23;20;
57289;PMS5003;43523;53.022;-1.178;2023-04-15T05:58:13;25;21;
57289;PMS5003;43523;53.022;-1.178;2023-04-15T05:59:16;26;22;
57289;PMS5003;43523;53.022;-1.178;2023-04-15T06:00:18;24;21;
57289;PMS5003;43523;53.022;-1.178;2023-04-15T06:01:21;18;16;
57289;PMS5003;43523;53.022;-1.178;2023-04-15T06:02:23;22;18;
57289;PMS5003;43523;53.022;-1.178;2023-04-15T06:03:25;26;23;
57289;PMS5003;43523;53.022;-1.178;2023-04-15T06:04:27;27;20;
57289;PMS5003;43523;53.022;-1.178;2023-04-15T06:05:29;20;18;
57289;PMS5003;43523;53.022;-1.178;2023-04-15T06:06:32;21;18;
57289;PMS5003;43523;53.022;-1.178;2023-04-15T06:07:34;22;21;
57289;PMS5003;43523;53.022;-1.178;2023-04-15T06:08:37;19;19;
57289;PMS5003;43523;53.022;-1.178;2023-04-15T06:09:39;23;20;
57289;PMS5003;43523;53.022;-1.178;2023-04-15T06:10:41;22;21;
57289;PMS5003;43523;53.022;-1.178;2023-04-15T06:11:43;21;18;
57289;PMS5003;43523;53.022;-1.178;2023-04-15T06:12:45;21;19;
57289;PMS5003;43523;53.022;-1.178;2023-04-15T06:13:47;24;22;
57289;PMS5003;43523;53.022;-1.178;2023-04-15T06:14:50;23;23;
57289;PMS5003;43523;53.022;-1.178;2023-04-15T06:15:52;22;18;
57289;PMS5003;43523;53.022;-1.178;2023-04-15T06:16:55;25;23;
57289;PMS5003;43523;53.022;-1.178;2023-04-15T06:17:57;22;19;
57289;PMS5003;43523;53.022;-1.178;2023-04-15T06:19:00;20;18;
57289;PMS5003;43523;53.022;-1.178;2023-04-15T06:20:03;30;23;
57289;PMS5003;43523;53.022;-1.178;2023-04-15T06:21:06;26;25;
57289;PMS5003;43523;53.022;-1.178;2023-04-15T06:22:08;26;21;
57289;PMS5003;43523;53.022;-1.178;2023-04-15T06:23:11;27;26;
57289;PMS5003;43523;53.022;-1.178;2023-04-15T06:24:13;17;16;
57289;PMS5003;43523;53.022;-1.178;2023-04-15T06:25:15;22;19;
57289;PMS5003;43523;53.022;-1.178;2023-04-15T06:26:18;23;20;
57289;PMS5003;43523;53.022;-1.178;2023-04-15T06:27:21;20;17;
57289;PMS5003;43523;53.022;-1.178;2023-04-15T06:28:23;18;14;
57289;PMS5003;43523;53.022;-1.178;2023-04-15T06:29:25;32;24;
57289;PMS5003;43523;53.022;-1.178;2023-04-15T06:30:27;24;19;
57289;PMS5003;43523;53.022;-1.178;2023-04-15T06:31:29;26;21;
57289;PMS5003;43523;53.022;-1.178;2023-04-15T06:32:32;20;18;
57289;PMS5003;43523;53.022;-1.178;2023-04-15T06:33:34;23;23;
57289;PMS5003;43523;53.022;-1.178;2023-04-15T06:34:35;26;21;
57289;PMS5003;43523;53.022;-1.178;2023-04-15T06:35:38;20;16;
57289;PMS5003;43523;53.022;-1.178;2023-04-15T06:36:41;22;22;
57289;PMS5003;43523;53.022;-1.178;2023-04-15T06:37:48;20;19;
57289;PMS5003;43523;53.022;-1.178;2023-04-15T06:38:50;22;20;
57289;PMS5003;43523;53.022;-1.178;2023-04-15T06:39:52;29;22;
57289;PMS5003;43523;53.022;-1.178;2023-04-15T06:40:54;29;22;
57289;PMS5003;43523;53.022;-1.178;2023-04-15T06:41:57;24;23;
57289;PMS5003;43523;53.022;-1.178;2023-04-15T06:42:58;20;17;
57289;PMS5003;43523;53.022;-1.178;2023-04-15T06:44:02;28;22;
57289;PMS5003;43523;53.022;-1.178;2023-04-15T06:45:05;21;18;
57289;PMS5003;43523;53.022;-1.178;2023-04-15T06:46:08;31;24;
57289;PMS5003;43523;53.022;-1.178;2023-04-15T06:47:10;21;20;
57289;PMS5003;43523;53.022;-1.178;2023-04-15T06:48:12;31;22;